sensor_id;sensor_type;location;lat;lon;timestamp;temperature;humidity
43858;DHT22;29507;51.284;5.758;2023-01-13T00:01:13;9.00;99.90
43858;DHT22;29507;51.284;5.758;2023-01-13T00:03:39;8.90;99.90
43858;DHT22;29507;51.284;5.758;2023-01-13T00:06:05;8.80;99.90
43858;DHT22;29507;51.284;5.758;2023-01-13T00:08:32;8.80;99.90
43858;DHT22;29507;51.284;5.758;2023-01-13T00:10:58;8.80;99.90
43858;DHT22;29507;51.284;5.758;2023-01-13T00:13:23;8.80;99.90
43858;DHT22;29507;51.284;5.758;2023-01-13T00:16:06;8.80;99.90
43858;DHT22;29507;51.284;5.758;2023-01-13T00:18:33;8.80;99.90
43858;DHT22;29507;51.284;5.758;2023-01-13T00:21:05;8.80;99.90
43858;DHT22;29507;51.284;5.758;2023-01-13T00:23:32;8.70;99.90
43858;DHT22;29507;51.284;5.758;2023-01-13T00:26:00;8.70;99.90
43858;DHT22;29507;51.284;5.758;2023-01-13T00:28:27;8.70;99.90
43858;DHT22;29507;51.284;5.758;2023-01-13T00:30:53;8.70;99.90
43858;DHT22;29507;51.284;5.758;2023-01-13T00:33:23;8.70;99.90
43858;DHT22;29507;51.284;5.758;2023-01-13T00:35:59;8.80;99.90
43858;DHT22;29507;51.284;5.758;2023-01-13T00:38:25;8.80;99.90
43858;DHT22;29507;51.284;5.758;2023-01-13T00:40:58;8.60;99.90
43858;DHT22;29507;51.284;5.758;2023-01-13T00:43:25;8.60;99.90
43858;DHT22;29507;51.284;5.758;2023-01-13T00:45:52;8.60;99.90
43858;DHT22;29507;51.284;5.758;2023-01-13T00:48:19;8.50;99.90
43858;DHT22;29507;51.284;5.758;2023-01-13T00:50:45;8.50;99.90
43858;DHT22;29507;51.284;5.758;2023-01-13T00:53:11;8.50;99.90
43858;DHT22;29507;51.284;5.758;2023-01-13T00:55:38;8.40;99.90
43858;DHT22;29507;51.284;5.758;2023-01-13T00:58:03;8.40;99.90
43858;DHT22;29507;51.284;5.758;2023-01-13T01:00:30;8.40;99.90
43858;DHT22;29507;51.284;5.758;2023-01-13T01:02:56;8.30;99.90
43858;DHT22;29507;51.284;5.758;2023-01-13T01:05:22;8.40;99.90
43858;DHT22;29507;51.284;5.758;2023-01-13T01:07:48;8.30;99.90
43858;DHT22;29507;51.284;5.758;2023-01-13T01:10:14;8.30;99.90
43858;DHT22;29507;51.284;5.758;2023-01-13T01:12:39;8.40;99.90
43858;DHT22;29507;51.284;5.758;2023-01-13T01:15:05;8.30;99.90
43858;DHT22;29507;51.284;5.758;2023-01-13T01:17:34;8.30;99.90
43858;DHT22;29507;51.284;5.758;2023-01-13T01:20:00;8.30;99.90
43858;DHT22;29507;51.284;5.758;2023-01-13T01:22:26;8.30;99.90
43858;DHT22;29507;51.284;5.758;2023-01-13T01:24:51;8.20;99.90
43858;DHT22;29507;51.284;5.758;2023-01-13T01:27:17;8.20;99.90
43858;DHT22;29507;51.284;5.758;2023-01-13T01:29:43;8.20;99.90
43858;DHT22;29507;51.284;5.758;2023-01-13T01:32:08;8.20;99.90
43858;DHT22;29507;51.284;5.758;2023-01-13T01:34:34;8.20;99.90
43858;DHT22;29507;51.284;5.758;2023-01-13T01:37:00;8.10;99.90
43858;DHT22;29507;51.284;5.758;2023-01-13T01:39:25;8.10;99.90
43858;DHT22;29507;51.284;5.758;2023-01-13T01:41:51;8.10;99.90
43858;DHT22;29507;51.284;5.758;2023-01-13T01:47:13;8.10;99.90
43858;DHT22;29507;51.284;5.758;2023-01-13T01:49:41;8.10;99.90
43858;DHT22;29507;51.284;5.758;2023-01-13T01:52:19;8.10;99.90
43858;DHT22;29507;51.284;5.758;2023-01-13T01:55:00;8.10;99.90
43858;DHT22;29507;51.284;5.758;2023-01-13T02:00:32;8.10;99.90
43858;DHT22;29507;51.284;5.758;2023-01-13T02:02:58;8.00;99.90
43858;DHT22;29507;51.284;5.758;2023-01-13T02:05:25;7.90;99.90
43858;DHT22;29507;51.284;5.758;2023-01-13T02:07:53;7.90;99.90
43858;DHT22;29507;51.284;5.758;2023-01-13T02:10:22;8.00;99.90
43858;DHT22;29507;51.284;5.758;2023-01-13T02:12:50;8.00;99.90
43858;DHT22;29507;51.284;5.758;2023-01-13T02:29:38;7.80;99.90
43858;DHT22;29507;51.284;5.758;2023-01-13T02:32:54;7.70;99.90
43858;DHT22;29507;51.284;5.758;2023-01-13T02:38:04;7.70;99.90
43858;DHT22;29507;51.284;5.758;2023-01-13T02:40:37;7.70;99.90
43858;DHT22;29507;51.284;5.758;2023-01-13T02:43:54;7.70;99.90
43858;DHT22;29507;51.284;5.758;2023-01-13T02:46:37;7.70;99.90
43858;DHT22;29507;51.284;5.758;2023-01-13T02:49:07;7.70;99.90
43858;DHT22;29507;51.284;5.758;2023-01-13T02:51:36;7.50;99.90
43858;DHT22;29507;51.284;5.758;2023-01-13T02:54:11;7.60;99.90
43858;DHT22;29507;51.284;5.758;2023-01-13T02:56:41;7.70;99.90
43858;DHT22;29507;51.284;5.758;2023-01-13T02:59:08;7.70;99.90
43858;DHT22;29507;51.284;5.758;2023-01-13T03:01:34;7.70;99.90
43858;DHT22;29507;51.284;5.758;2023-01-13T03:04:11;7.70;99.90
43858;DHT22;29507;51.284;5.758;2023-01-13T03:06:50;7.70;99.90
43858;DHT22;29507;51.284;5.758;2023-01-13T03:09:31;7.70;99.90
43858;DHT22;29507;51.284;5.758;2023-01-13T03:12:20;7.60;99.90
43858;DHT22;29507;51.284;5.758;2023-01-13T03:15:03;7.60;99.90
43858;DHT22;29507;51.284;5.758;2023-01-13T03:17:46;7.60;99.90
43858;DHT22;29507;51.284;5.758;2023-01-13T03:20:28;7.60;99.90
43858;DHT22;29507;51.284;5.758;2023-01-13T03:23:15;7.60;99.90
43858;DHT22;29507;51.284;5.758;2023-01-13T03:25:52;7.70;99.90
43858;DHT22;29507;51.284;5.758;2023-01-13T03:28:28;7.70;99.90
43858;DHT22;29507;51.284;5.758;2023-01-13T03:31:04;7.70;99.90
43858;DHT22;29507;51.284;5.758;2023-01-13T03:33:35;7.70;99.90
43858;DHT22;29507;51.284;5.758;2023-01-13T03:36:07;7.80;99.90
43858;DHT22;29507;51.284;5.758;2023-01-13T03:38:45;7.80;99.90
43858;DHT22;29507;51.284;5.758;2023-01-13T03:41:18;7.80;99.90
43858;DHT22;29507;51.284;5.758;2023-01-13T03:44:03;7.80;99.90
43858;DHT22;29507;51.284;5.758;2023-01-13T03:49:21;7.90;99.90
43858;DHT22;29507;51.284;5.758;2023-01-13T03:51:54;7.80;99.90
43858;DHT22;29507;51.284;5.758;2023-01-13T03:54:22;7.70;99.90
43858;DHT22;29507;51.284;5.758;2023-01-13T03:56:55;7.60;99.90
43858;DHT22;29507;51.284;5.758;2023-01-13T03:59:26;7.70;99.90
43858;DHT22;29507;51.284;5.758;2023-01-13T04:02:29;7.80;99.90
43858;DHT22;29507;51.284;5.758;2023-01-13T04:05:01;7.70;99.90
43858;DHT22;29507;51.284;5.758;2023-01-13T04:10:32;7.60;99.90
43858;DHT22;29507;51.284;5.758;2023-01-13T04:13:01;7.60;99.90
43858;DHT22;29507;51.284;5.758;2023-01-13T04:15:41;7.60;99.90
43858;DHT22;29507;51.284;5.758;2023-01-13T04:18:14;7.70;99.90
43858;DHT22;29507;51.284;5.758;2023-01-13T04:20:42;7.80;99.90
43858;DHT22;29507;51.284;5.758;2023-01-13T04:23:08;7.80;99.90
43858;DHT22;29507;51.284;5.758;2023-01-13T04:25:34;7.90;99.90
43858;DHT22;29507;51.284;5.758;2023-01-13T04:28:00;7.80;99.90
43858;DHT22;29507;51.284;5.758;2023-01-13T04:30:26;7.80;99.90
43858;DHT22;29507;51.284;5.758;2023-01-13T04:32:52;7.70;99.90
43858;DHT22;29507;51.284;5.758;2023-01-13T04:35:18;7.80;99.90
43858;DHT22;29507;51.284;5.758;2023-01-13T04:37:43;7.70;99.90
43858;DHT22;29507;51.284;5.758;2023-01-13T04:40:09;7.70;99.90
43858;DHT22;29507;51.284;5.758;2023-01-13T04:42:35;7.60;99.90
43858;DHT22;29507;51.284;5.758;2023-01-13T04:45:01;7.70;99.90
43858;DHT22;29507;51.284;5.758;2023-01-13T04:47:26;7.80;99.90
43858;DHT22;29507;51.284;5.758;2023-01-13T04:49:52;7.80;99.90
43858;DHT22;29507;51.284;5.758;2023-01-13T04:52:18;7.80;99.90
43858;DHT22;29507;51.284;5.758;2023-01-13T04:54:43;7.70;99.90
43858;DHT22;29507;51.284;5.758;2023-01-13T04:57:09;7.60;99.90
43858;DHT22;29507;51.284;5.758;2023-01-13T04:59:35;7.50;99.90
43858;DHT22;29507;51.284;5.758;2023-01-13T05:02:00;7.50;99.90
43858;DHT22;29507;51.284;5.758;2023-01-13T05:04:26;7.50;99.90
43858;DHT22;29507;51.284;5.758;2023-01-13T05:06:52;7.30;99.90
43858;DHT22;29507;51.284;5.758;2023-01-13T05:09:17;7.20;99.90
43858;DHT22;29507;51.284;5.758;2023-01-13T05:11:43;7.20;99.90
43858;DHT22;29507;51.284;5.758;2023-01-13T05:14:28;7.30;99.90
43858;DHT22;29507;51.284;5.758;2023-01-13T05:17:22;7.30;99.90
43858;DHT22;29507;51.284;5.758;2023-01-13T05:19:49;7.30;99.90
43858;DHT22;29507;51.284;5.758;2023-01-13T05:22:14;7.40;99.90
43858;DHT22;29507;51.284;5.758;2023-01-13T05:24:59;7.30;99.90
43858;DHT22;29507;51.284;5.758;2023-01-13T05:27:43;7.30;99.90
43858;DHT22;29507;51.284;5.758;2023-01-13T05:30:09;7.40;99.90
43858;DHT22;29507;51.284;5.758;2023-01-13T05:32:35;7.50;99.90
43858;DHT22;29507;51.284;5.758;2023-01-13T05:35:01;7.60;99.90
43858;DHT22;29507;51.284;5.758;2023-01-13T05:37:27;7.80;99.90
43858;DHT22;29507;51.284;5.758;2023-01-13T05:39:53;7.80;99.90
43858;DHT22;29507;51.284;5.758;2023-01-13T05:42:37;7.80;99.90
43858;DHT22;29507;51.284;5.758;2023-01-13T05:45:22;7.80;99.90
43858;DHT22;29507;51.284;5.758;2023-01-13T05:47:48;7.80;99.90
43858;DHT22;29507;51.284;5.758;2023-01-13T05:50:13;7.70;99.90
43858;DHT22;29507;51.284;5.758;2023-01-13T05:52:39;7.60;99.90
43858;DHT22;29507;51.284;5.758;2023-01-13T05:55:05;7.60;99.90
43858;DHT22;29507;51.284;5.758;2023-01-13T05:57:31;7.50;99.90
43858;DHT22;29507;51.284;5.758;2023-01-13T05:59:56;7.40;99.90
43858;DHT22;29507;51.284;5.758;2023-01-13T06:02:22;7.50;99.90
43858;DHT22;29507;51.284;5.758;2023-01-13T06:04:49;7.40;99.90
43858;DHT22;29507;51.284;5.758;2023-01-13T06:07:14;7.40;99.90
43858;DHT22;29507;51.284;5.758;2023-01-13T06:09:40;7.40;99.90
43858;DHT22;29507;51.284;5.758;2023-01-13T06:12:06;7.40;99.90
43858;DHT22;29507;51.284;5.758;2023-01-13T06:14:31;7.40;99.90
43858;DHT22;29507;51.284;5.758;2023-01-13T06:17:12;7.50;99.90
43858;DHT22;29507;51.284;5.758;2023-01-13T06:19:39;7.40;99.90
43858;DHT22;29507;51.284;5.758;2023-01-13T06:22:12;7.30;99.90
43858;DHT22;29507;51.284;5.758;2023-01-13T06:24:40;7.40;99.90
43858;DHT22;29507;51.284;5.758;2023-01-13T06:27:07;7.40;99.90
43858;DHT22;29507;51.284;5.758;2023-01-13T06:29:33;7.50;99.90
43858;DHT22;29507;51.284;5.758;2023-01-13T06:32:03;7.50;99.90
43858;DHT22;29507;51.284;5.758;2023-01-13T06:34:30;7.60;99.90
43858;DHT22;29507;51.284;5.758;2023-01-13T06:36:57;7.60;99.90
43858;DHT22;29507;51.284;5.758;2023-01-13T06:39:24;7.60;99.90
43858;DHT22;29507;51.284;5.758;2023-01-13T06:41:53;7.60;99.90
43858;DHT22;29507;51.284;5.758;2023-01-13T06:44:38;7.70;99.90
43858;DHT22;29507;51.284;5.758;2023-01-13T06:47:04;7.70;99.90
43858;DHT22;29507;51.284;5.758;2023-01-13T06:49:30;7.60;99.90
43858;DHT22;29507;51.284;5.758;2023-01-13T06:51:56;7.60;99.90
43858;DHT22;29507;51.284;5.758;2023-01-13T06:54:21;7.60;99.90
43858;DHT22;29507;51.284;5.758;2023-01-13T06:56:47;7.50;99.90
43858;DHT22;29507;51.284;5.758;2023-01-13T06:59:13;7.50;99.90
43858;DHT22;29507;51.284;5.758;2023-01-13T07:01:38;7.60;99.90
43858;DHT22;29507;51.284;5.758;2023-01-13T07:04:04;7.60;99.90
43858;DHT22;29507;51.284;5.758;2023-01-13T07:06:30;7.60;99.90
43858;DHT22;29507;51.284;5.758;2023-01-13T07:08:55;7.50;99.90
43858;DHT22;29507;51.284;5.758;2023-01-13T07:11:21;7.50;99.90
43858;DHT22;29507;51.284;5.758;2023-01-13T07:13:47;7.60;99.90
43858;DHT22;29507;51.284;5.758;2023-01-13T07:16:31;7.60;99.90
43858;DHT22;29507;51.284;5.758;2023-01-13T07:18:57;7.60;99.90
43858;DHT22;29507;51.284;5.758;2023-01-13T07:21:22;7.60;99.90
43858;DHT22;29507;51.284;5.758;2023-01-13T07:23:48;7.60;99.90
43858;DHT22;29507;51.284;5.758;2023-01-13T07:26:14;7.60;99.90
43858;DHT22;29507;51.284;5.758;2023-01-13T07:28:40;7.60;99.90
43858;DHT22;29507;51.284;5.758;2023-01-13T07:31:13;7.60;99.90
43858;DHT22;29507;51.284;5.758;2023-01-13T07:33:40;7.60;99.90
43858;DHT22;29507;51.284;5.758;2023-01-13T07:36:06;7.50;99.90
43858;DHT22;29507;51.284;5.758;2023-01-13T07:38:32;7.60;99.90
43858;DHT22;29507;51.284;5.758;2023-01-13T07:40:59;7.60;99.90
43858;DHT22;29507;51.284;5.758;2023-01-13T07:43:47;7.50;99.90
43858;DHT22;29507;51.284;5.758;2023-01-13T07:46:13;7.40;99.90
43858;DHT22;29507;51.284;5.758;2023-01-13T07:48:39;7.40;99.90
43858;DHT22;29507;51.284;5.758;2023-01-13T07:51:06;7.50;99.90
43858;DHT22;29507;51.284;5.758;2023-01-13T07:53:33;7.50;99.90
43858;DHT22;29507;51.284;5.758;2023-01-13T07:56:00;7.40;99.90
43858;DHT22;29507;51.284;5.758;2023-01-13T07:58:26;7.40;99.90
43858;DHT22;29507;51.284;5.758;2023-01-13T08:00:52;7.40;99.90
43858;DHT22;29507;51.284;5.758;2023-01-13T08:03:18;7.40;99.90
43858;DHT22;29507;51.284;5.758;2023-01-13T08:05:43;7.50;99.90
43858;DHT22;29507;51.284;5.758;2023-01-13T08:08:09;7.60;99.90
43858;DHT22;29507;51.284;5.758;2023-01-13T08:10:35;7.60;99.90
43858;DHT22;29507;51.284;5.758;2023-01-13T08:13:08;7.50;99.90
43858;DHT22;29507;51.284;5.758;2023-01-13T08:15:49;7.50;99.90
43858;DHT22;29507;51.284;5.758;2023-01-13T08:18:19;7.60;99.90
43858;DHT22;29507;51.284;5.758;2023-01-13T08:20:47;7.70;99.90
43858;DHT22;29507;51.284;5.758;2023-01-13T08:23:14;7.80;99.90
43858;DHT22;29507;51.284;5.758;2023-01-13T08:25:39;7.90;99.90
43858;DHT22;29507;51.284;5.758;2023-01-13T08:28:05;8.10;99.90
43858;DHT22;29507;51.284;5.758;2023-01-13T08:30:31;8.10;99.90
43858;DHT22;29507;51.284;5.758;2023-01-13T08:32:57;8.20;99.90
43858;DHT22;29507;51.284;5.758;2023-01-13T08:35:23;8.20;99.90
43858;DHT22;29507;51.284;5.758;2023-01-13T08:37:49;8.30;99.90
43858;DHT22;29507;51.284;5.758;2023-01-13T08:40:16;8.20;99.90
43858;DHT22;29507;51.284;5.758;2023-01-13T08:42:42;8.20;99.90
43858;DHT22;29507;51.284;5.758;2023-01-13T08:45:09;8.30;99.90
43858;DHT22;29507;51.284;5.758;2023-01-13T08:47:35;8.20;99.90
43858;DHT22;29507;51.284;5.758;2023-01-13T08:50:01;8.10;99.90
43858;DHT22;29507;51.284;5.758;2023-01-13T08:52:28;8.10;99.90
43858;DHT22;29507;51.284;5.758;2023-01-13T08:54:54;8.20;99.90
43858;DHT22;29507;51.284;5.758;2023-01-13T08:57:20;8.20;99.90
43858;DHT22;29507;51.284;5.758;2023-01-13T08:59:45;8.30;99.90
43858;DHT22;29507;51.284;5.758;2023-01-13T09:02:19;8.30;99.90
43858;DHT22;29507;51.284;5.758;2023-01-13T09:04:46;8.40;99.90
43858;DHT22;29507;51.284;5.758;2023-01-13T09:07:12;8.50;99.90
43858;DHT22;29507;51.284;5.758;2023-01-13T09:09:38;8.60;99.90
43858;DHT22;29507;51.284;5.758;2023-01-13T09:12:05;8.70;99.90
43858;DHT22;29507;51.284;5.758;2023-01-13T09:14:49;8.80;99.90
43858;DHT22;29507;51.284;5.758;2023-01-13T09:17:15;8.80;99.90
43858;DHT22;29507;51.284;5.758;2023-01-13T09:19:41;8.80;99.90
43858;DHT22;29507;51.284;5.758;2023-01-13T09:22:09;8.90;99.90
43858;DHT22;29507;51.284;5.758;2023-01-13T09:24:35;9.00;99.90
43858;DHT22;29507;51.284;5.758;2023-01-13T09:27:00;9.10;99.90
43858;DHT22;29507;51.284;5.758;2023-01-13T09:29:26;9.00;99.90
43858;DHT22;29507;51.284;5.758;2023-01-13T09:31:52;9.10;99.90
43858;DHT22;29507;51.284;5.758;2023-01-13T09:34:19;9.20;99.90
43858;DHT22;29507;51.284;5.758;2023-01-13T09:37:05;9.20;99.90
43858;DHT22;29507;51.284;5.758;2023-01-13T09:39:32;9.20;99.90
43858;DHT22;29507;51.284;5.758;2023-01-13T09:42:02;9.30;99.90
43858;DHT22;29507;51.284;5.758;2023-01-13T09:44:55;9.30;99.90
43858;DHT22;29507;51.284;5.758;2023-01-13T09:47:29;9.30;99.90
43858;DHT22;29507;51.284;5.758;2023-01-13T09:50:31;9.30;99.90
43858;DHT22;29507;51.284;5.758;2023-01-13T09:52:59;9.30;99.90
43858;DHT22;29507;51.284;5.758;2023-01-13T09:55:33;9.30;99.90
43858;DHT22;29507;51.284;5.758;2023-01-13T09:58:06;9.20;99.90
43858;DHT22;29507;51.284;5.758;2023-01-13T10:00:42;9.30;99.90
43858;DHT22;29507;51.284;5.758;2023-01-13T10:06:01;9.40;99.90
43858;DHT22;29507;51.284;5.758;2023-01-13T10:08:35;9.40;99.90
43858;DHT22;29507;51.284;5.758;2023-01-13T10:11:05;9.50;99.90
43858;DHT22;29507;51.284;5.758;2023-01-13T10:14:00;9.50;99.90
43858;DHT22;29507;51.284;5.758;2023-01-13T10:16:33;9.50;99.90
43858;DHT22;29507;51.284;5.758;2023-01-13T10:19:24;9.50;99.90
43858;DHT22;29507;51.284;5.758;2023-01-13T10:24:42;9.40;99.90
43858;DHT22;29507;51.284;5.758;2023-01-13T10:27:32;9.40;99.90
43858;DHT22;29507;51.284;5.758;2023-01-13T10:32:42;9.40;99.90
43858;DHT22;29507;51.284;5.758;2023-01-13T10:35:10;9.40;99.90
43858;DHT22;29507;51.284;5.758;2023-01-13T10:37:36;9.40;99.90
43858;DHT22;29507;51.284;5.758;2023-01-13T10:40:02;9.40;99.90
43858;DHT22;29507;51.284;5.758;2023-01-13T10:42:28;9.40;99.90
43858;DHT22;29507;51.284;5.758;2023-01-13T10:44:59;9.40;99.90
43858;DHT22;29507;51.284;5.758;2023-01-13T10:47:30;9.40;99.90
43858;DHT22;29507;51.284;5.758;2023-01-13T10:52:30;9.50;99.90
43858;DHT22;29507;51.284;5.758;2023-01-13T10:54:56;9.60;99.90
43858;DHT22;29507;51.284;5.758;2023-01-13T10:57:24;9.60;99.90
43858;DHT22;29507;51.284;5.758;2023-01-13T10:59:50;9.60;99.90
43858;DHT22;29507;51.284;5.758;2023-01-13T11:02:29;9.40;99.90
43858;DHT22;29507;51.284;5.758;2023-01-13T11:07:39;9.00;99.90
43858;DHT22;29507;51.284;5.758;2023-01-13T11:10:26;8.90;99.90
43858;DHT22;29507;51.284;5.758;2023-01-13T11:15:39;8.80;99.90
43858;DHT22;29507;51.284;5.758;2023-01-13T11:18:58;8.80;99.90
43858;DHT22;29507;51.284;5.758;2023-01-13T11:20:59;8.90;99.90
43858;DHT22;29507;51.284;5.758;2023-01-13T11:23:34;8.90;99.90
43858;DHT22;29507;51.284;5.758;2023-01-13T11:26:14;8.90;99.90
43858;DHT22;29507;51.284;5.758;2023-01-13T11:29:03;8.90;99.90
43858;DHT22;29507;51.284;5.758;2023-01-13T11:31:35;8.90;99.90
43858;DHT22;29507;51.284;5.758;2023-01-13T11:36:51;8.90;99.90
43858;DHT22;29507;51.284;5.758;2023-01-13T11:42:31;8.70;99.90
43858;DHT22;29507;51.284;5.758;2023-01-13T11:45:15;8.50;99.90
43858;DHT22;29507;51.284;5.758;2023-01-13T11:47:45;8.20;99.90
43858;DHT22;29507;51.284;5.758;2023-01-13T11:50:16;7.80;99.90
43858;DHT22;29507;51.284;5.758;2023-01-13T12:03:46;7.90;99.90
43858;DHT22;29507;51.284;5.758;2023-01-13T12:06:32;8.00;99.90
43858;DHT22;29507;51.284;5.758;2023-01-13T12:26:13;8.30;99.90
43858;DHT22;29507;51.284;5.758;2023-01-13T12:31:47;8.40;99.90
43858;DHT22;29507;51.284;5.758;2023-01-13T12:40:14;8.50;99.90
43858;DHT22;29507;51.284;5.758;2023-01-13T12:42:51;8.50;99.90
43858;DHT22;29507;51.284;5.758;2023-01-13T12:45:38;8.60;99.90
43858;DHT22;29507;51.284;5.758;2023-01-13T12:48:04;8.60;99.90
43858;DHT22;29507;51.284;5.758;2023-01-13T12:52:57;8.60;99.90
43858;DHT22;29507;51.284;5.758;2023-01-13T12:55:31;8.60;99.90
43858;DHT22;29507;51.284;5.758;2023-01-13T13:17:38;8.90;99.90
43858;DHT22;29507;51.284;5.758;2023-01-13T13:20:09;8.90;99.90
43858;DHT22;29507;51.284;5.758;2023-01-13T13:22:50;8.90;99.90
43858;DHT22;29507;51.284;5.758;2023-01-13T13:25:21;8.90;99.90
43858;DHT22;29507;51.284;5.758;2023-01-13T13:28:03;8.80;99.90
43858;DHT22;29507;51.284;5.758;2023-01-13T13:30:42;8.90;99.90
43858;DHT22;29507;51.284;5.758;2023-01-13T13:36:09;8.80;99.90
43858;DHT22;29507;51.284;5.758;2023-01-13T13:41:23;8.80;99.90
43858;DHT22;29507;51.284;5.758;2023-01-13T13:47:00;8.80;99.90
43858;DHT22;29507;51.284;5.758;2023-01-13T13:49:41;8.80;99.90
43858;DHT22;29507;51.284;5.758;2023-01-13T13:54:37;8.90;99.90
43858;DHT22;29507;51.284;5.758;2023-01-13T13:57:17;9.00;99.90
43858;DHT22;29507;51.284;5.758;2023-01-13T13:59:43;9.00;99.90
43858;DHT22;29507;51.284;5.758;2023-01-13T14:02:18;9.10;99.90
43858;DHT22;29507;51.284;5.758;2023-01-13T14:04:44;9.20;99.90
43858;DHT22;29507;51.284;5.758;2023-01-13T14:07:18;9.20;99.90
43858;DHT22;29507;51.284;5.758;2023-01-13T14:09:49;9.20;99.90
43858;DHT22;29507;51.284;5.758;2023-01-13T14:12:21;9.10;99.90
43858;DHT22;29507;51.284;5.758;2023-01-13T14:14:48;9.10;99.90
43858;DHT22;29507;51.284;5.758;2023-01-13T14:20:06;9.00;99.90
43858;DHT22;29507;51.284;5.758;2023-01-13T14:22:34;9.00;99.90
43858;DHT22;29507;51.284;5.758;2023-01-13T14:24:59;8.90;99.90
43858;DHT22;29507;51.284;5.758;2023-01-13T14:27:28;8.80;99.90
43858;DHT22;29507;51.284;5.758;2023-01-13T14:29:55;8.80;99.90
43858;DHT22;29507;51.284;5.758;2023-01-13T14:32:28;8.90;99.90
43858;DHT22;29507;51.284;5.758;2023-01-13T14:34:55;8.90;99.90
43858;DHT22;29507;51.284;5.758;2023-01-13T14:39:49;8.90;99.90
43858;DHT22;29507;51.284;5.758;2023-01-13T14:42:16;8.80;99.90
43858;DHT22;29507;51.284;5.758;2023-01-13T14:44:47;8.80;99.90
43858;DHT22;29507;51.284;5.758;2023-01-13T14:50:00;8.70;99.90
43858;DHT22;29507;51.284;5.758;2023-01-13T14:52:32;8.60;99.90
43858;DHT22;29507;51.284;5.758;2023-01-13T14:57:34;8.60;99.90
43858;DHT22;29507;51.284;5.758;2023-01-13T15:02:45;8.50;99.90
43858;DHT22;29507;51.284;5.758;2023-01-13T15:10:59;8.60;99.90
43858;DHT22;29507;51.284;5.758;2023-01-13T15:15:53;8.60;99.90
43858;DHT22;29507;51.284;5.758;2023-01-13T15:18:19;8.60;99.90
43858;DHT22;29507;51.284;5.758;2023-01-13T15:20:45;8.60;99.90
43858;DHT22;29507;51.284;5.758;2023-01-13T15:23:11;8.60;99.90
43858;DHT22;29507;51.284;5.758;2023-01-13T15:25:41;8.60;99.90
43858;DHT22;29507;51.284;5.758;2023-01-13T15:28:29;8.60;99.90
43858;DHT22;29507;51.284;5.758;2023-01-13T15:30:56;8.60;99.90
43858;DHT22;29507;51.284;5.758;2023-01-13T15:33:25;8.60;99.90
43858;DHT22;29507;51.284;5.758;2023-01-13T15:35:52;8.60;99.90
43858;DHT22;29507;51.284;5.758;2023-01-13T15:38:20;8.60;99.90
43858;DHT22;29507;51.284;5.758;2023-01-13T15:40:48;8.60;99.90
43858;DHT22;29507;51.284;5.758;2023-01-13T15:43:16;8.70;99.90
43858;DHT22;29507;51.284;5.758;2023-01-13T15:46:01;8.70;99.90
43858;DHT22;29507;51.284;5.758;2023-01-13T15:48:47;8.70;99.90
43858;DHT22;29507;51.284;5.758;2023-01-13T15:51:13;8.50;99.90
43858;DHT22;29507;51.284;5.758;2023-01-13T15:53:39;8.60;99.90
43858;DHT22;29507;51.284;5.758;2023-01-13T15:56:13;8.50;99.90
43858;DHT22;29507;51.284;5.758;2023-01-13T15:58:40;8.50;99.90
43858;DHT22;29507;51.284;5.758;2023-01-13T16:01:07;8.50;99.90
43858;DHT22;29507;51.284;5.758;2023-01-13T16:03:33;8.50;99.90
43858;DHT22;29507;51.284;5.758;2023-01-13T16:05:59;8.50;99.90
43858;DHT22;29507;51.284;5.758;2023-01-13T16:08:25;8.40;99.90
43858;DHT22;29507;51.284;5.758;2023-01-13T16:10:50;8.40;99.90
43858;DHT22;29507;51.284;5.758;2023-01-13T16:13:16;8.40;99.90
43858;DHT22;29507;51.284;5.758;2023-01-13T16:15:46;8.40;99.90
43858;DHT22;29507;51.284;5.758;2023-01-13T16:18:20;8.40;99.90
43858;DHT22;29507;51.284;5.758;2023-01-13T16:20:49;8.50;99.90
43858;DHT22;29507;51.284;5.758;2023-01-13T16:23:21;8.50;99.90
43858;DHT22;29507;51.284;5.758;2023-01-13T16:25:47;8.40;99.90
43858;DHT22;29507;51.284;5.758;2023-01-13T16:28:24;8.30;99.90
43858;DHT22;29507;51.284;5.758;2023-01-13T16:30:52;8.30;99.90
43858;DHT22;29507;51.284;5.758;2023-01-13T16:33:18;8.30;99.90
43858;DHT22;29507;51.284;5.758;2023-01-13T16:35:44;8.40;99.90
43858;DHT22;29507;51.284;5.758;2023-01-13T16:38:15;8.40;99.90
43858;DHT22;29507;51.284;5.758;2023-01-13T16:40:40;8.30;99.90
43858;DHT22;29507;51.284;5.758;2023-01-13T16:43:06;8.40;99.90
43858;DHT22;29507;51.284;5.758;2023-01-13T16:45:33;8.40;99.90
43858;DHT22;29507;51.284;5.758;2023-01-13T16:47:59;8.30;99.90
43858;DHT22;29507;51.284;5.758;2023-01-13T16:50:30;8.30;99.90
43858;DHT22;29507;51.284;5.758;2023-01-13T16:52:58;8.30;99.90
43858;DHT22;29507;51.284;5.758;2023-01-13T16:55:23;8.40;99.90
43858;DHT22;29507;51.284;5.758;2023-01-13T16:57:49;8.40;99.90
43858;DHT22;29507;51.284;5.758;2023-01-13T17:00:15;8.50;99.90
43858;DHT22;29507;51.284;5.758;2023-01-13T17:02:41;8.50;99.90
43858;DHT22;29507;51.284;5.758;2023-01-13T17:05:10;8.50;99.90
43858;DHT22;29507;51.284;5.758;2023-01-13T17:07:36;8.60;99.90
43858;DHT22;29507;51.284;5.758;2023-01-13T17:10:02;8.50;99.90
43858;DHT22;29507;51.284;5.758;2023-01-13T17:12:28;8.60;99.90
43858;DHT22;29507;51.284;5.758;2023-01-13T17:14:53;8.60;99.90
43858;DHT22;29507;51.284;5.758;2023-01-13T17:17:24;8.60;99.90
43858;DHT22;29507;51.284;5.758;2023-01-13T17:19:51;8.50;99.90
43858;DHT22;29507;51.284;5.758;2023-01-13T17:22:17;8.60;99.90
43858;DHT22;29507;51.284;5.758;2023-01-13T17:24:43;8.60;99.90
43858;DHT22;29507;51.284;5.758;2023-01-13T17:27:09;8.60;99.90
43858;DHT22;29507;51.284;5.758;2023-01-13T17:29:34;8.60;99.90
43858;DHT22;29507;51.284;5.758;2023-01-13T17:32:00;8.70;99.90
43858;DHT22;29507;51.284;5.758;2023-01-13T17:34:26;8.80;99.90
43858;DHT22;29507;51.284;5.758;2023-01-13T17:36:52;8.70;99.90
43858;DHT22;29507;51.284;5.758;2023-01-13T17:39:20;8.70;99.90
43858;DHT22;29507;51.284;5.758;2023-01-13T17:41:47;8.60;99.90
43858;DHT22;29507;51.284;5.758;2023-01-13T17:44:15;8.60;99.90
43858;DHT22;29507;51.284;5.758;2023-01-13T17:46:41;8.60;99.90
43858;DHT22;29507;51.284;5.758;2023-01-13T17:49:10;8.60;99.90
43858;DHT22;29507;51.284;5.758;2023-01-13T17:51:35;8.50;99.90
43858;DHT22;29507;51.284;5.758;2023-01-13T17:54:01;8.40;99.90
43858;DHT22;29507;51.284;5.758;2023-01-13T17:56:27;8.30;99.90
43858;DHT22;29507;51.284;5.758;2023-01-13T17:58:52;8.30;99.90
43858;DHT22;29507;51.284;5.758;2023-01-13T18:01:19;8.40;99.90
43858;DHT22;29507;51.284;5.758;2023-01-13T18:03:45;8.20;99.90
43858;DHT22;29507;51.284;5.758;2023-01-13T18:06:16;8.30;99.90
43858;DHT22;29507;51.284;5.758;2023-01-13T18:08:43;8.20;99.90
43858;DHT22;29507;51.284;5.758;2023-01-13T18:11:09;8.10;99.90
43858;DHT22;29507;51.284;5.758;2023-01-13T18:13:34;8.10;99.90
43858;DHT22;29507;51.284;5.758;2023-01-13T18:16:08;8.00;99.90
43858;DHT22;29507;51.284;5.758;2023-01-13T18:18:39;8.10;99.90
43858;DHT22;29507;51.284;5.758;2023-01-13T18:21:06;8.10;99.90
43858;DHT22;29507;51.284;5.758;2023-01-13T18:23:51;8.00;99.90
43858;DHT22;29507;51.284;5.758;2023-01-13T18:26:39;7.90;99.90